Time;durP1;ratioP1;P1;durP2;ratioP2;P2;SDS_P1;SDS_P2;PMS_P1;PMS_P2;Temp;Humidity;BMP_temperature;BMP_pressure;BME280_temperature;BME280_humidity;BME280_pressure;Samples;Min_cycle;Max_cycle;Signal;HPM_P1;HPM_P2
2022/09/06 00:00:10;;;;;;;5.90;1.77;;;;;;;10.55;65.99;99790.25;4831651;29;20543;-91
2022/09/06 00:02:41;;;;;;;2.90;1.80;;;;;;;10.48;66.29;99782.44;4855521;29;20049;-91
2022/09/06 00:05:07;;;;;;;;;;;;;;;10.89;66.20;99833.63;4859146;29;20037;-91
2022/09/06 00:10:00;;;;;;;5.57;1.90;;;;;;;10.84;65.71;99833.75;4853347;29;20069;-91
2022/09/06 00:17:23;;;;;;;2.85;1.63;;;;;;;10.49;65.64;99786.78;4860231;29;20136;-88
2022/09/06 00:19:50;;;;;;;4.23;1.70;;;;;;;10.01;65.73;99732.41;4861293;29;20052;-90
2022/09/06 00:22:16;;;;;;;6.47;1.63;;;;;;;10.33;66.27;99801.81;4855235;29;20853;-89
2022/09/06 00:27:11;;;;;;;7.00;1.92;;;;;;;10.19;66.43;99801.75;4868595;29;20862;-92
2022/09/06 00:29:37;;;;;;;2.15;1.40;;;;;;;10.41;66.78;99823.00;4857563;29;20081;-91
2022/09/06 00:34:32;;;;;;;4.03;1.60;;;;;;;10.33;66.00;99801.81;4863254;29;20041;-90
2022/09/06 00:39:24;;;;;;;3.40;1.52;;;;;;;10.37;66.43;99813.81;4862532;29;20041;-90
2022/09/06 00:46:49;;;;;;;3.25;1.88;;;;;;;10.51;66.16;99841.16;4857327;29;20500;-92
2022/09/06 00:49:27;;;;;;;2.88;1.45;;;;;;;10.08;66.29;99779.25;4858533;29;20038;-90
2022/09/06 00:51:58;;;;;;;2.88;1.70;;;;;;;9.94;66.34;99772.94;4831261;29;20140;-90
2022/09/06 00:54:24;;;;;;;5.15;1.67;;;;;;;9.81;66.79;99751.84;4848967;29;20047;-89
2022/09/06 00:59:20;;;;;;;3.15;1.50;;;;;;;10.07;67.25;99812.34;4861493;29;20049;-90
2022/09/06 01:01:46;;;;;;;5.40;1.95;;;;;;;10.04;67.34;99818.41;4830889;29;20059;-90
2022/09/06 01:04:13;;;;;;;2.53;1.75;;;;;;;9.61;67.94;99786.53;4861294;29;20093;-88
2022/09/06 01:07:24;;;;;;;5.13;2.25;;;;;;;9.48;68.64;99776.34;4830805;29;20041;-90
2022/09/06 01:10:08;;;;;;;2.58;1.60;;;;;;;10.04;68.15;99840.25;4827929;29;20105;-90
2022/09/06 01:13:10;;;;;;;4.70;1.95;;;;;;;9.91;68.30;99836.34;4830494;29;20060;-90
2022/09/06 01:15:54;;;;;;;2.67;1.75;;;;;;;9.47;68.47;99766.56;4830004;29;20293;-90
2022/09/06 01:18:35;;;;;;;3.90;1.30;;;;;;;9.75;68.61;99826.75;4845954;29;20041;-89
2022/09/06 01:21:35;;;;;;;2.30;1.42;;;;;;;9.80;68.55;99835.69;4845985;29;20419;-89
2022/09/06 01:24:18;;;;;;;2.30;1.70;;;;;;;9.51;68.18;99781.22;4830702;29;20066;-90
2022/09/06 01:27:09;;;;;;;3.13;1.50;;;;;;;9.75;68.18;99834.94;4829780;29;20079;-89
2022/09/06 01:29:55;;;;;;;4.22;1.70;;;;;;;9.12;68.18;99716.00;4861246;29;20076;-90
2022/09/06 01:32:31;;;;;;;2.17;1.45;;;;;;;9.74;68.02;99820.47;4830022;29;20076;-90
2022/09/06 01:35:31;;;;;;;4.13;1.60;;;;;;;9.37;67.11;99774.84;4845758;29;20415;-92
2022/09/06 03:36:30;;;;;;;6.00;3.80;;;;;;;10.17;64.86;99830.50;5150890;27;21555;-93
2022/09/06 03:38:57;;;;;;;6.88;3.17;;;;;;;10.32;64.49;99828.34;5098994;27;20106;-93
2022/09/06 03:41:23;;;;;;;5.43;3.50;;;;;;;10.17;64.54;99812.19;5112305;27;20053;-93
2022/09/06 03:43:51;;;;;;;9.27;3.45;;;;;;;10.38;64.50;99861.88;5099801;27;20173;-94
2022/09/06 03:48:46;;;;;;;4.35;2.58;;;;;;;10.36;63.51;99858.63;5140130;27;20058;-92
2022/09/06 03:51:15;;;;;;;5.38;2.70;;;;;;;10.46;64.01;99855.75;5095697;28;20040;-89
2022/09/06 03:53:41;;;;;;;3.72;2.90;;;;;;;10.35;64.02;99824.22;5141241;27;20031;-88
2022/09/06 03:56:10;;;;;;;7.68;2.88;;;;;;;10.54;63.43;99833.19;5113059;28;20041;-90
2022/09/06 03:58:36;;;;;;;4.18;2.60;;;;;;;10.51;62.88;99824.75;5113524;27;20058;-87
2022/09/06 04:06:01;;;;;;;4.35;3.10;;;;;;;10.62;62.12;99855.47;5145858;27;20049;-88
2022/09/06 04:08:28;;;;;;;16.60;2.85;;;;;;;10.75;62.62;99863.69;5118656;28;20042;-94
2022/09/06 04:13:25;;;;;;;4.85;2.50;;;;;;;10.37;62.31;99838.41;5131728;27;20039;-91
2022/09/06 04:15:51;;;;;;;9.68;2.38;;;;;;;10.41;62.79;99842.16;5087283;27;20047;-90
2022/09/06 04:18:19;;;;;;;8.27;2.97;;;;;;;10.44;62.71;99829.81;5115854;27;20039;-91
2022/09/06 04:37:31;;;;;;;21.23;3.10;;;;;;;10.89;61.97;99858.25;5137265;27;20479;-94
2022/09/06 04:39:57;;;;;;;9.10;2.78;;;;;;;10.77;62.04;99831.41;5083966;27;20514;-91
2022/09/06 04:42:23;;;;;;;9.38;3.25;;;;;;;11.01;62.27;99864.06;5100348;27;20047;-91
2022/09/06 04:44:49;;;;;;;3.03;1.92;;;;;;;10.50;61.65;99815.75;5085170;27;20142;-94
2022/09/06 04:47:18;;;;;;;2.78;2.00;;;;;;;10.68;61.78;99852.34;5066983;28;20036;-94
2022/09/06 04:49:44;;;;;;;7.55;2.33;;;;;;;10.63;61.23;99841.50;5065349;28;20032;-91
2022/09/06 04:54:41;;;;;;;4.85;2.20;;;;;;;10.58;60.52;99841.59;5116436;28;20043;-94
2022/09/06 05:07:05;;;;;;;8.20;1.80;;;;;;;10.80;60.54;99877.28;5117889;28;20047;-92
2022/09/06 05:09:33;;;;;;;9.40;2.20;;;;;;;10.89;60.38;99868.38;5081288;28;20065;-95
2022/09/06 05:14:29;;;;;;;18.92;1.98;;;;;;;10.99;60.79;99843.56;5117970;28;20134;-93
2022/09/06 05:16:55;;;;;;;31.25;2.42;;;;;;;11.17;59.05;99870.03;5082013;28;20035;-93
2022/09/06 05:31:41;;;;;;;4.60;2.10;;;;;;;10.87;60.93;99838.59;5116547;28;20042;-93
2022/09/06 05:34:09;;;;;;;10.83;1.93;;;;;;;10.78;59.46;99810.31;5080353;28;20071;-93
2022/09/06 05:36:37;;;;;;;10.07;2.10;;;;;;;10.66;59.49;99818.19;5065201;28;20039;-93
2022/09/06 05:39:03;;;;;;;76.57;7.07;;;;;;;10.54;60.23;99791.38;5064929;28;20096;-94
2022/09/06 05:46:27;;;;;;;9.48;2.40;;;;;;;11.05;59.95;99804.88;5114502;28;20496;-93
2022/09/06 05:49:06;;;;;;;12.10;2.72;;;;;;;11.26;59.87;99862.75;5097235;28;20131;-93
2022/09/06 05:51:32;;;;;;;6.07;2.00;;;;;;;11.09;59.85;99796.06;5063780;28;20048;-94
2022/09/06 05:53:59;;;;;;;17.63;2.58;;;;;;;11.16;57.80;99805.50;5063789;28;20065;-93
2022/09/06 05:58:54;;;;;;;5.68;1.85;;;;;;;11.33;58.73;99865.09;5115646;28;20277;-94
2022/09/06 06:01:27;;;;;;;9.83;2.20;;;;;;;11.08;58.57;99810.84;5081057;28;20036;-95
2022/09/06 06:03:59;;;;;;;4.82;2.00;;;;;;;11.01;59.33;99789.38;5097389;28;20334;-94
2022/09/06 06:06:28;;;;;;;3.78;1.73;;;;;;;11.18;58.26;99797.78;5064136;28;20445;-96
2022/09/06 06:08:55;;;;;;;5.20;1.92;;;;;;;11.21;58.02;99823.72;5080722;28;20073;-93
2022/09/06 06:11:22;;;;;;;2.67;1.70;;;;;;;11.27;58.05;99825.25;5063138;28;20150;-95
2022/09/06 06:13:48;;;;;;;;;;;;;;;11.53;57.59;99872.06;5097075;28;20126;-93
2022/09/06 06:18:44;;;;;;;20.58;2.70;;;;;;;11.31;57.16;99820.78;5115066;28;19919;-92
2022/09/06 06:21:14;;;;;;;5.30;2.50;;;;;;;11.67;57.61;99872.88;5080007;28;20404;-93
2022/09/06 06:23:43;;;;;;;17.38;3.25;;;;;;;11.20;56.59;99802.97;5097185;28;20137;-95
2022/09/06 06:26:11;;;;;;;5.85;2.55;;;;;;;11.38;57.57;99793.81;5065325;28;20047;-96
2022/09/06 06:31:11;;;;;;;12.88;2.80;;;;;;;12.07;55.88;99870.38;5114169;28;20439;-88
2022/09/06 06:33:38;;;;;;;8.00;3.20;;;;;;;12.26;56.43;99866.66;5077824;28;20043;-88
2022/09/06 06:36:17;;;;;;;9.18;2.60;;;;;;;11.94;54.52;99849.31;5079560;28;20165;-88
2022/09/06 06:51:10;;;;;;;19.08;3.95;;;;;;;11.64;54.34;99856.22;5113976;28;20080;-90
2022/09/06 06:53:37;;;;;;;23.70;4.10;;;;;;;11.52;54.91;99860.31;5078317;28;20059;-90
2022/09/06 06:56:27;;;;;;;17.70;4.13;;;;;;;11.57;54.87;99861.31;5061395;28;20043;-89
2022/09/06 07:01:25;;;;;;;9.35;4.45;;;;;;;11.40;55.61;99821.69;5120539;28;20046;-96
2022/09/06 07:06:29;;;;;;;11.45;4.65;;;;;;;11.05;57.10;99845.91;5119654;28;20071;-95
2022/09/06 07:09:03;;;;;;;22.98;4.95;;;;;;;10.87;59.95;99824.94;5091609;28;20046;-94
2022/09/06 07:11:30;;;;;;;44.17;7.10;;;;;;;11.04;61.63;99873.59;5095057;28;20020;-93
2022/09/06 07:13:57;;;;;;;30.60;6.25;;;;;;;10.94;61.36;99877.31;5111943;28;20054;-96
2022/09/06 07:18:53;;;;;;;16.55;5.53;;;;;;;11.10;61.95;99872.38;5132406;28;20051;-92
2022/09/06 07:21:25;;;;;;;13.48;5.43;;;;;;;11.22;61.36;99861.72;5103271;28;20087;-92
2022/09/06 07:26:25;;;;;;;28.00;5.45;;;;;;;11.24;62.31;99870.44;5124981;28;20035;-89
2022/09/06 07:29:03;;;;;;;8.70;4.78;;;;;;;11.42;63.26;99865.16;5090713;28;20100;-88
2022/09/06 07:31:31;;;;;;;13.80;5.22;;;;;;;11.24;61.80;99836.81;5090624;28;20520;-89
2022/09/06 07:34:03;;;;;;;17.27;5.55;;;;;;;11.62;62.92;99870.25;5090615;28;20047;-89
2022/09/06 07:36:30;;;;;;;11.75;5.18;;;;;;;11.21;60.79;99815.53;5065815;28;20036;-90
2022/09/06 07:43:54;;;;;;;14.10;5.25;;;;;;;11.37;60.44;99805.88;5092381;28;20047;-88
2022/09/06 07:53:51;;;;;;;16.52;5.03;;;;;;;12.28;59.08;99851.50;5092541;28;20044;-89
2022/09/06 07:58:47;;;;;;;14.23;4.82;;;;;;;12.26;58.29;99842.00;5093185;28;20043;-94
2022/09/06 08:01:29;;;;;;;45.53;6.65;;;;;;;12.40;57.09;99850.97;5076086;28;20500;-93
2022/09/06 08:04:07;;;;;;;30.65;5.13;;;;;;;12.14;56.43;99848.03;5092334;28;20044;-91
2022/09/06 08:06:36;;;;;;;21.00;5.13;;;;;;;12.13;56.16;99844.47;5107672;28;20040;-88
2022/09/06 08:09:06;;;;;;;16.10;4.57;;;;;;;12.15;55.59;99838.66;5091829;28;20044;-92
2022/09/06 08:11:34;;;;;;;11.57;4.40;;;;;;;11.99;52.62;99830.03;5094511;28;20228;-89
2022/09/06 08:16:35;;;;;;;9.25;4.50;;;;;;;12.02;52.40;99850.50;5097703;28;20044;-96
2022/09/06 08:21:31;;;;;;;9.63;4.70;;;;;;;11.94;56.42;99817.22;5096625;28;20043;-94
2022/09/06 08:24:06;;;;;;;14.48;4.93;;;;;;;12.05;55.06;99820.53;5063100;28;20666;-96
2022/09/06 08:26:34;;;;;;;16.77;5.13;;;;;;;11.70;53.72;99765.44;5080072;28;20051;-94
2022/09/06 08:36:30;;;;;;;12.80;5.57;;;;;;;12.68;53.17;99843.38;5117005;28;20062;-94
2022/09/06 08:42:09;;;;;;;32.92;4.53;;;;;;;12.10;54.51;99847.84;5125487;27;20036;-94
2022/09/06 08:44:47;;;;;;;27.50;5.30;;;;;;;11.67;55.62;99828.25;5005777;28;20071;-93
2022/09/06 08:47:17;;;;;;;22.95;3.88;;;;;;;11.69;55.18;99843.25;5001866;28;20474;-91
2022/09/06 08:49:51;;;;;;;30.83;4.28;;;;;;;11.40;56.12;99807.19;4985189;28;20071;-94
2022/09/06 08:52:45;;;;;;;23.27;4.60;;;;;;;11.29;57.73;99768.25;5001853;28;20704;-92
2022/09/06 08:55:32;;;;;;;51.25;5.35;;;;;;;11.73;57.06;99841.50;5019047;27;20055;-91
2022/09/06 09:02:00;;;;;;;13.73;3.50;;;;;;;11.61;57.46;99829.47;4992479;28;20077;-94
2022/09/06 09:04:32;;;;;;;22.95;4.38;;;;;;;11.67;58.28;99778.94;4966877;28;20226;-92
2022/09/06 09:07:30;;;;;;;10.40;2.75;;;;;;;12.08;57.07;99776.06;4986318;28;20041;-95
2022/09/06 09:09:58;;;;;;;33.20;4.38;;;;;;;12.23;54.26;99781.19;4970354;28;20061;-93
2022/09/06 09:12:35;;;;;;;18.05;3.92;;;;;;;12.45;54.80;99783.09;5029617;28;20134;-91
2022/09/06 09:15:08;;;;;;;20.92;3.38;;;;;;;12.74;53.37;99816.63;4998438;28;20041;-90
2022/09/06 09:17:36;;;;;;;10.18;3.45;;;;;;;12.76;54.73;99804.22;4939510;28;20505;-89
2022/09/06 09:20:03;;;;;;;11.30;3.70;;;;;;;12.74;54.98;99775.47;4936035;29;20069;-90
2022/09/06 09:22:30;;;;;;;6.13;2.30;;;;;;;12.50;54.26;99762.94;4926055;29;20149;-90
2022/09/06 09:24:58;;;;;;;11.07;2.80;;;;;;;12.74;54.12;99791.94;4962931;28;20051;-90
2022/09/06 09:27:27;;;;;;;14.88;2.75;;;;;;;12.91;53.38;99803.81;4936500;29;20080;-90
2022/09/06 09:29:53;;;;;;;7.05;2.65;;;;;;;13.14;54.17;99821.03;4949395;28;20051;-92
2022/09/06 09:32:40;;;;;;;13.43;2.90;;;;;;;13.45;53.32;99798.19;4955224;28;20046;-92
2022/09/06 09:35:25;;;;;;;6.28;2.40;;;;;;;13.56;52.31;99805.00;4957837;28;20500;-92
2022/09/06 09:38:07;;;;;;;10.55;3.63;;;;;;;13.50;52.08;99799.97;4972494;28;20052;-90
2022/09/06 09:40:50;;;;;;;9.52;3.03;;;;;;;13.33;53.05;99787.81;5019232;28;20093;-93
2022/09/06 09:43:24;;;;;;;5.10;2.55;;;;;;;13.33;51.68;99787.03;5014849;28;20049;-92
2022/09/06 09:46:15;;;;;;;8.85;2.70;;;;;;;13.23;52.98;99785.34;5002477;28;20037;-94
2022/09/06 09:49:00;;;;;;;5.55;2.28;;;;;;;13.23;51.77;99795.53;5019045;28;20045;-91
2022/09/06 09:53:58;;;;;;;8.43;2.30;;;;;;;13.00;51.16;99783.81;5050121;28;20032;-88
2022/09/06 09:56:32;;;;;;;4.80;2.28;;;;;;;12.36;52.19;99738.38;5061826;28;20036;-94
2022/09/06 09:59:00;;;;;;;9.48;2.67;;;;;;;12.37;52.44;99764.66;5049242;28;20044;-92
2022/09/06 10:04:11;;;;;;;6.60;2.50;;;;;;;12.54;53.59;99752.16;5038033;28;20049;-92
2022/09/06 10:09:30;;;;;;;4.97;2.17;;;;;;;12.94;54.38;99777.66;5096243;28;20118;-93
2022/09/06 10:11:58;;;;;;;8.80;2.72;;;;;;;12.97;53.40;99755.06;5078774;28;20029;-95
2022/09/06 10:14:28;;;;;;;6.47;2.25;;;;;;;13.20;54.69;99776.94;5049927;28;20041;-96
2022/09/06 10:17:00;;;;;;;5.72;2.40;;;;;;;13.05;55.05;99718.63;5042821;28;20131;-96
2022/09/06 10:36:32;;;;;;;5.43;2.63;;;;;;;11.99;61.72;99736.84;4996775;28;20053;-96
2022/09/06 10:39:34;;;;;;;6.45;3.17;;;;;;;12.36;63.07;99806.91;4952227;28;20038;-95
2022/09/06 10:42:26;;;;;;;10.30;3.58;;;;;;;12.68;64.68;99810.47;4952351;28;20038;-94
2022/09/06 10:45:34;;;;;;;8.63;3.55;;;;;;;12.57;63.82;99757.81;4952437;28;20061;-96
2022/09/06 10:48:26;;;;;;;5.32;2.88;;;;;;;12.97;62.21;99801.72;4947476;28;20046;-95
2022/09/06 10:50:57;;;;;;;4.38;2.83;;;;;;;12.92;61.17;99786.22;4949736;28;20133;-95
2022/09/06 10:54:02;;;;;;;6.80;2.67;;;;;;;12.63;60.40;99744.78;4971469;28;20110;-93
2022/09/06 10:56:51;;;;;;;12.77;2.78;;;;;;;12.68;63.12;99759.19;4956258;28;20071;-93
2022/09/06 10:59:24;;;;;;;6.65;2.63;;;;;;;12.65;63.53;99731.56;4992933;28;20045;-95
2022/09/06 11:11:52;;;;;;;4.78;2.50;;;;;;;13.16;56.29;99793.25;5007398;28;20054;-93
2022/09/06 11:16:01;;;;;;;7.72;2.70;;;;;;;13.08;56.68;99792.09;4992584;28;20047;-94
2022/09/06 11:19:00;;;;;;;5.85;2.92;;;;;;;13.17;56.67;99797.59;4981473;28;20038;-94
2022/09/06 11:22:35;;;;;;;38.17;5.40;;;;;;;13.10;55.61;99787.09;4955981;28;20091;-95
2022/09/06 11:25:14;;;;;;;18.55;2.60;;;;;;;12.91;57.66;99734.38;4958808;28;20339;-94
2022/09/06 11:28:02;;;;;;;7.75;2.22;;;;;;;13.05;55.42;99745.28;4953228;28;20039;-93
2022/09/06 11:31:33;;;;;;;;;;;;;;;;;;;;;
2022/09/06 11:34:53;;;;;;;9.30;2.63;;;;;;;13.14;55.74;99792.75;4923581;29;20047;-94
2022/09/06 11:41:01;;;;;;;10.02;2.70;;;;;;;13.13;55.97;99794.69;5162171;23;20031;-95
2022/09/06 11:54:04;;;;;;;15.57;3.30;;;;;;;13.35;56.81;99784.78;4969652;29;20059;-94
2022/09/06 11:57:25;;;;;;;43.53;6.32;;;;;;;12.79;54.55;99732.28;4923918;28;20555;-94
2022/09/06 12:00:22;;;;;;;15.93;2.65;;;;;;;12.54;55.67;99717.31;4928446;29;20062;-93
2022/09/06 12:03:27;;;;;;;11.60;3.00;;;;;;;12.40;55.65;99709.19;4922021;29;20065;-94
2022/09/06 12:06:21;;;;;;;17.20;3.33;;;;;;;12.59;56.23;99722.66;4909283;29;20051;-94
2022/09/06 12:08:59;;;;;;;20.23;3.42;;;;;;;13.16;58.33;99779.53;4913816;29;20055;-95
2022/09/06 12:11:45;;;;;;;16.55;3.13;;;;;;;13.19;56.48;99750.63;4904568;29;20138;-96
2022/09/06 12:14:35;;;;;;;23.67;3.40;;;;;;;12.93;57.09;99701.97;4930304;29;20070;-94
2022/09/06 12:17:05;;;;;;;4.18;2.30;;;;;;;13.31;55.06;99775.53;4958788;23;20035;-93
2022/09/06 12:23:04;;;;;;;13.52;3.20;;;;;;;13.10;56.88;99775.31;4938837;29;20059;-95
2022/09/06 12:25:54;;;;;;;11.95;3.33;;;;;;;12.70;57.71;99706.72;4902199;23;20056;-94
2022/09/06 12:28:29;;;;;;;52.47;6.43;;;;;;;13.04;56.88;99757.34;4941719;29;20032;-94
2022/09/06 12:31:01;;;;;;;36.90;6.60;;;;;;;12.61;57.73;99711.38;4944621;29;20043;-95
2022/09/06 12:33:42;;;;;;;27.38;5.75;;;;;;;12.74;58.00;99695.94;4920809;29;20047;-95
2022/09/06 12:39:58;;;;;;;18.45;4.00;;;;;;;12.76;59.63;99727.41;4924512;29;20027;-95
2022/09/06 12:42:25;;;;;;;10.52;3.80;;;;;;;12.63;59.91;99707.19;4912180;29;20496;-93
2022/09/06 12:47:31;;;;;;;11.98;4.00;;;;;;;12.98;62.40;99744.91;4958303;29;20035;-94
2022/09/06 12:50:24;;;;;;;9.38;4.72;;;;;;;12.85;60.91;99750.22;4896370;29;20151;-93
2022/09/06 12:53:02;;;;;;;9.02;3.70;;;;;;;12.88;61.13;99752.31;4875744;29;20518;-91
2022/09/06 12:55:36;;;;;;;9.93;4.57;;;;;;;12.56;61.95;99706.84;4882731;29;20138;-91
2022/09/06 12:58:05;;;;;;;11.35;4.95;;;;;;;12.34;62.40;99688.50;4905646;29;20076;-92
2022/09/06 13:00:49;;;;;;;8.55;4.40;;;;;;;12.92;62.43;99766.22;4871968;29;20040;-94
2022/09/06 13:03:21;;;;;;;9.70;4.32;;;;;;;13.00;63.26;99770.09;4886072;29;20048;-93
2022/09/06 13:05:47;;;;;;;8.63;4.05;;;;;;;12.84;63.97;99743.09;4886444;29;20044;-94
2022/09/06 13:08:23;;;;;;;9.65;3.20;;;;;;;12.81;62.85;99740.16;4888332;29;20056;-93
2022/09/06 13:10:50;;;;;;;9.98;3.58;;;;;;;12.50;62.00;99712.78;4915787;29;20043;-88
2022/09/06 13:13:22;;;;;;;9.77;2.85;;;;;;;12.71;61.90;99754.97;4884862;29;20116;-86
2022/09/06 13:15:48;;;;;;;15.82;3.75;;;;;;;12.44;62.35;99703.88;4915161;29;20574;-89
2022/09/06 13:18:30;;;;;;;6.22;2.47;;;;;;;12.74;62.32;99737.88;4909457;29;20052;-89
2022/09/06 13:21:43;;;;;;;14.02;4.00;;;;;;;12.94;61.99;99742.78;4915075;29;20040;-86
2022/09/06 13:24:22;;;;;;;25.65;5.30;;;;;;;12.92;60.98;99727.78;4930469;29;20050;-87
2022/09/06 13:26:51;;;;;;;9.20;4.50;;;;;;;12.96;61.07;99734.25;4933203;29;20077;-89
2022/09/06 13:29:17;;;;;;;10.50;3.28;;;;;;;12.96;61.15;99750.72;4938504;29;20039;-86
2022/09/06 13:31:46;;;;;;;96.70;19.63;;;;;;;12.90;62.26;99739.06;4946817;29;20531;-85
2022/09/06 13:34:24;;;;;;;11.20;4.22;;;;;;;12.83;62.86;99741.47;4948952;29;20036;-85
2022/09/06 13:36:53;;;;;;;13.13;3.40;;;;;;;12.67;62.12;99763.03;4901337;29;20067;-85
2022/09/06 13:39:36;;;;;;;11.23;3.47;;;;;;;12.54;62.36;99754.91;4937784;29;20047;-85
2022/09/06 13:42:10;;;;;;;9.68;3.72;;;;;;;12.56;63.53;99755.41;4937057;29;20397;-85
2022/09/06 13:44:38;;;;;;;16.38;4.07;;;;;;;12.49;64.87;99760.53;4938319;29;20110;-87
2022/09/06 13:47:05;;;;;;;13.02;4.10;;;;;;;12.44;65.92;99734.84;4954910;29;20445;-85
2022/09/06 13:49:32;;;;;;;11.07;4.40;;;;;;;12.40;66.19;99733.88;4944944;29;20039;-86
2022/09/06 13:52:02;;;;;;;11.15;4.65;;;;;;;12.52;64.59;99732.50;4951830;29;20039;-90
2022/09/06 13:54:31;;;;;;;15.70;5.35;;;;;;;12.69;67.80;99749.81;4954493;29;20043;-85
2022/09/06 13:56:57;;;;;;;9.35;4.50;;;;;;;12.79;67.22;99764.38;4953956;29;20039;-86
2022/09/06 13:59:24;;;;;;;12.02;4.03;;;;;;;12.68;67.00;99755.59;4936548;29;20593;-86
2022/09/06 14:02:02;;;;;;;7.33;4.20;;;;;;;12.66;67.05;99750.44;4953796;29;20042;-85
2022/09/06 14:04:29;;;;;;;14.68;4.88;;;;;;;12.66;66.00;99747.72;4929728;29;20051;-85
2022/09/06 14:06:55;;;;;;;14.40;5.07;;;;;;;12.72;66.41;99751.13;4949303;28;20588;-86
2022/09/06 14:09:22;;;;;;;11.57;5.15;;;;;;;12.57;65.19;99724.09;4933685;29;20074;-85
2022/09/06 14:11:49;;;;;;;7.05;4.20;;;;;;;12.50;64.84;99721.81;4952580;29;20071;-87
2022/09/06 14:14:16;;;;;;;7.07;3.90;;;;;;;12.48;65.17;99737.75;4899852;29;20570;-88
2022/09/06 14:16:43;;;;;;;12.63;4.32;;;;;;;12.43;64.42;99725.00;4919507;29;20294;-86
2022/09/06 14:19:10;;;;;;;10.38;4.20;;;;;;;12.29;65.02;99710.59;4954906;29;20051;-84
2022/09/06 14:21:36;;;;;;;9.77;4.30;;;;;;;12.25;64.22;99706.88;4945524;29;20090;-86
2022/09/06 14:24:03;;;;;;;7.83;4.27;;;;;;;12.35;64.15;99714.81;4919161;29;20047;-87
2022/09/06 14:26:29;;;;;;;12.18;4.18;;;;;;;12.20;63.84;99693.28;4917400;29;20057;-85
2022/09/06 14:28:55;;;;;;;9.90;4.27;;;;;;;12.15;63.58;99694.25;4936752;29;20039;-85
2022/09/06 14:31:27;;;;;;;10.93;4.50;;;;;;;12.50;63.25;99743.75;4916168;29;20039;-89
2022/09/06 14:33:54;;;;;;;7.85;4.30;;;;;;;12.37;63.88;99726.28;4936323;29;20337;-89
2022/09/06 14:36:23;;;;;;;14.85;4.32;;;;;;;12.29;63.40;99737.22;4947197;29;20040;-90
2022/09/06 14:38:50;;;;;;;12.90;4.43;;;;;;;12.09;63.75;99702.91;4901482;29;20790;-89
2022/09/06 14:41:18;;;;;;;8.90;4.05;;;;;;;11.89;63.81;99699.56;4937240;29;20043;-88
2022/09/06 14:43:49;;;;;;;7.47;3.35;;;;;;;11.79;62.84;99699.78;4919355;29;20569;-88
2022/09/06 14:46:17;;;;;;;8.30;4.30;;;;;;;11.58;62.64;99666.59;4908699;29;20039;-91
2022/09/06 14:48:45;;;;;;;11.77;3.58;;;;;;;11.73;62.14;99701.84;4919689;29;20047;-88
2022/09/06 14:51:22;;;;;;;9.48;3.75;;;;;;;11.96;62.29;99726.53;4928401;29;20099;-94
2022/09/06 14:53:51;;;;;;;16.52;6.45;;;;;;;11.80;62.51;99695.91;4909470;29;20050;-86
2022/09/06 14:56:18;;;;;;;18.45;7.40;;;;;;;11.88;62.59;99708.88;4907987;29;20052;-87
2022/09/06 14:58:45;;;;;;;;;;;;;;;12.21;63.31;99736.81;4912905;29;20409;-89
2022/09/06 15:01:20;;;;;;;34.85;8.75;;;;;;;12.26;63.60;99741.38;4926140;29;20491;-87
2022/09/06 15:03:50;;;;;;;11.35;3.70;;;;;;;12.05;61.83;99702.69;4925972;29;20125;-90
2022/09/06 15:06:20;;;;;;;12.05;4.55;;;;;;;12.15;63.52;99718.06;4909667;29;20096;-88
2022/09/06 15:08:47;;;;;;;12.10;4.47;;;;;;;12.22;62.95;99729.44;4911660;29;20054;-90
2022/09/06 15:11:14;;;;;;;;;;;;;;;12.27;60.90;99742.97;4927272;29;20063;-90
2022/09/06 15:13:41;;;;;;;7.80;3.13;;;;;;;11.98;60.92;99700.41;4921228;29;20300;-89
2022/09/06 15:16:09;;;;;;;9.30;3.00;;;;;;;12.01;60.58;99698.16;4924009;29;20074;-87
2022/09/06 15:18:35;;;;;;;10.65;3.50;;;;;;;11.95;60.49;99698.31;4926598;29;20038;-89
2022/09/06 15:21:10;;;;;;;9.63;2.97;;;;;;;11.82;60.48;99671.78;4908502;29;20054;-89
2022/09/06 15:23:38;;;;;;;11.27;4.75;;;;;;;11.81;59.95;99680.28;4914451;29;20672;-89
2022/09/06 15:26:07;;;;;;;17.00;3.65;;;;;;;11.65;59.87;99655.19;4937618;29;20066;-88
2022/09/06 15:28:38;;;;;;;7.80;2.90;;;;;;;11.81;59.50;99685.75;4923931;29;20071;-88
2022/09/06 15:31:06;;;;;;;11.30;3.22;;;;;;;12.21;59.38;99731.34;4896544;29;20035;-87
2022/09/06 15:33:35;;;;;;;6.30;3.28;;;;;;;12.05;59.11;99705.44;4916492;29;20058;-90
2022/09/06 15:36:06;;;;;;;6.35;2.83;;;;;;;11.79;58.93;99675.13;4903026;29;20465;-87
2022/09/06 15:38:33;;;;;;;6.18;3.03;;;;;;;11.67;59.18;99656.50;4941150;29;20047;-88
2022/09/06 15:41:07;;;;;;;15.40;3.70;;;;;;;11.81;59.18;99677.56;4928801;29;20044;-89
2022/09/06 15:43:36;;;;;;;10.13;3.72;;;;;;;11.82;59.59;99688.22;4936518;29;20504;-91
2022/09/06 15:46:02;;;;;;;8.85;3.40;;;;;;;12.15;59.02;99726.28;4926824;29;20138;-91
2022/09/06 15:48:48;;;;;;;8.98;3.80;;;;;;;12.09;60.41;99714.69;4893809;29;20042;-90
2022/09/06 15:51:17;;;;;;;12.77;4.35;;;;;;;11.60;59.21;99638.91;4922752;29;20118;-91
2022/09/06 15:53:45;;;;;;;9.95;4.65;;;;;;;11.94;58.56;99698.63;4915413;29;20043;-92
2022/09/06 15:56:16;;;;;;;8.88;3.72;;;;;;;12.02;58.71;99702.53;4904210;29;20077;-89
2022/09/06 15:58:45;;;;;;;6.97;2.95;;;;;;;12.01;57.71;99704.47;4952829;29;20066;-89
2022/09/06 16:06:15;;;;;;;9.85;3.25;;;;;;;11.84;57.95;99680.50;4903767;29;20043;-86
2022/09/06 16:08:45;;;;;;;6.43;3.25;;;;;;;11.86;57.28;99711.13;4917548;29;20039;-88
2022/09/06 16:11:14;;;;;;;6.78;3.28;;;;;;;12.07;58.44;99733.34;4952595;29;20046;-91
2022/09/06 16:13:41;;;;;;;6.85;3.30;;;;;;;11.88;58.43;99708.88;4951664;29;20090;-86
2022/09/06 16:16:11;;;;;;;8.45;3.47;;;;;;;11.71;57.37;99693.09;4950880;29;20043;-89
2022/09/06 16:18:41;;;;;;;6.65;3.00;;;;;;;11.54;57.53;99690.25;4944001;29;20614;-90
2022/09/06 16:21:11;;;;;;;9.82;3.10;;;;;;;11.70;58.16;99707.94;4924831;29;20039;-92
2022/09/06 16:23:41;;;;;;;9.30;3.28;;;;;;;11.48;58.08;99678.59;4899949;29;20039;-91
2022/09/06 16:26:10;;;;;;;7.45;2.95;;;;;;;11.55;56.63;99702.81;4908912;29;20051;-91
2022/09/06 16:28:36;;;;;;;6.95;2.80;;;;;;;11.50;56.46;99703.75;4906610;29;20039;-90
2022/09/06 16:31:06;;;;;;;6.15;2.65;;;;;;;11.47;56.36;99701.63;4944107;29;20027;-92
2022/09/06 16:33:34;;;;;;;6.70;2.55;;;;;;;11.43;55.48;99691.63;4944679;29;20117;-89
2022/09/06 16:36:02;;;;;;;9.50;2.30;;;;;;;11.42;55.02;99706.41;4910783;29;20433;-89
2022/09/06 16:38:30;;;;;;;4.68;2.15;;;;;;;11.52;54.42;99737.09;4912650;29;20178;-86
2022/09/06 16:41:14;;;;;;;7.75;2.30;;;;;;;11.56;55.15;99733.75;4920679;29;20064;-87
2022/09/06 16:43:42;;;;;;;9.43;2.33;;;;;;;11.24;54.74;99702.72;4944686;29;20060;-89
2022/09/06 16:46:11;;;;;;;5.47;2.10;;;;;;;11.11;54.28;99696.16;4929609;29;20114;-90
2022/09/06 16:48:42;;;;;;;7.20;2.35;;;;;;;11.11;53.67;99704.34;4914019;29;20046;-85
2022/09/06 16:51:17;;;;;;;7.22;2.10;;;;;;;11.30;53.92;99723.38;4911808;29;20504;-89
2022/09/06 16:53:45;;;;;;;5.35;2.00;;;;;;;11.17;53.58;99710.53;4926382;29;20528;-88
2022/09/06 16:56:14;;;;;;;6.65;1.80;;;;;;;11.40;54.41;99750.53;4948590;29;20062;-87
2022/09/06 16:58:42;;;;;;;8.70;1.85;;;;;;;11.42;54.66;99745.56;4913245;29;20536;-87
2022/09/06 17:01:09;;;;;;;6.88;2.35;;;;;;;11.20;54.88;99702.50;4930891;29;20129;-88
2022/09/06 17:03:37;;;;;;;6.15;2.15;;;;;;;11.48;55.51;99738.00;4948562;29;20047;-87
2022/09/06 17:06:04;;;;;;;4.55;2.00;;;;;;;11.12;55.02;99692.28;4908527;29;20043;-88
2022/09/06 17:08:32;;;;;;;5.50;2.40;;;;;;;11.35;55.23;99706.81;4894711;29;20194;-88
2022/09/06 17:11:06;;;;;;;5.72;2.63;;;;;;;11.34;55.70;99716.16;4937997;28;20043;-89
2022/09/06 17:13:33;;;;;;;7.63;2.25;;;;;;;11.42;55.77;99741.97;4929667;29;20510;-91
2022/09/06 17:18:45;;;;;;;9.77;2.60;;;;;;;11.15;56.48;99721.75;4954665;29;20130;-89
2022/09/06 17:21:12;;;;;;;4.50;2.20;;;;;;;11.08;56.43;99698.69;4919514;29;20056;-89
2022/09/06 17:23:40;;;;;;;6.70;2.10;;;;;;;11.38;57.06;99746.47;4930894;29;20144;-87
2022/09/06 17:26:06;;;;;;;3.97;2.40;;;;;;;11.15;57.30;99710.81;4927199;29;20048;-90
2022/09/06 17:28:36;;;;;;;8.40;2.38;;;;;;;11.42;56.80;99745.56;4928389;29;20050;-87
2022/09/06 17:31:04;;;;;;;6.97;2.72;;;;;;;11.51;56.91;99751.09;4919176;29;20039;-86